sensor_id;sensor_type;location;lat;lon;timestamp;P1;durP1;ratioP1;P2;durP2;ratioP2
69970;SDS011;57301;50.328;8.542;2023-10-13T00:01:24;10.73;;;7.30;;
69970;SDS011;57301;50.328;8.542;2023-10-13T00:03:51;9.07;;;6.03;;
69970;SDS011;57301;50.328;8.542;2023-10-13T00:06:18;12.80;;;6.50;;
69970;SDS011;57301;50.328;8.542;2023-10-13T00:08:45;12.18;;;6.55;;
69970;SDS011;57301;50.328;8.542;2023-10-13T00:11:12;11.93;;;7.50;;
69970;SDS011;57301;50.328;8.542;2023-10-13T00:13:40;17.35;;;10.10;;
69970;SDS011;57301;50.328;8.542;2023-10-13T00:16:29;12.20;;;7.77;;
69970;SDS011;57301;50.328;8.542;2023-10-13T00:18:57;14.18;;;8.80;;
69970;SDS011;57301;50.328;8.542;2023-10-13T00:21:24;11.35;;;7.00;;
69970;SDS011;57301;50.328;8.542;2023-10-13T00:24:00;15.30;;;6.78;;
69970;SDS011;57301;50.328;8.542;2023-10-13T00:26:28;11.13;;;6.78;;
69970;SDS011;57301;50.328;8.542;2023-10-13T00:29:00;11.40;;;6.90;;
69970;SDS011;57301;50.328;8.542;2023-10-13T00:31:47;12.68;;;6.80;;
69970;SDS011;57301;50.328;8.542;2023-10-13T00:34:15;10.82;;;6.45;;
69970;SDS011;57301;50.328;8.542;2023-10-13T00:36:46;13.88;;;6.93;;
69970;SDS011;57301;50.328;8.542;2023-10-13T00:39:36;11.30;;;7.18;;
69970;SDS011;57301;50.328;8.542;2023-10-13T00:42:03;9.43;;;6.67;;
69970;SDS011;57301;50.328;8.542;2023-10-13T00:44:34;10.68;;;7.22;;
69970;SDS011;57301;50.328;8.542;2023-10-13T00:47:11;12.52;;;6.53;;
69970;SDS011;57301;50.328;8.542;2023-10-13T00:49:48;12.23;;;7.18;;
69970;SDS011;57301;50.328;8.542;2023-10-13T00:52:15;11.65;;;6.72;;
69970;SDS011;57301;50.328;8.542;2023-10-13T00:54:45;10.87;;;6.20;;
69970;SDS011;57301;50.328;8.542;2023-10-13T00:57:15;10.57;;;6.65;;
69970;SDS011;57301;50.328;8.542;2023-10-13T00:59:56;15.13;;;7.03;;
69970;SDS011;57301;50.328;8.542;2023-10-13T01:02:24;15.13;;;6.95;;
69970;SDS011;57301;50.328;8.542;2023-10-13T01:05:05;11.50;;;6.90;;
69970;SDS011;57301;50.328;8.542;2023-10-13T01:07:46;10.70;;;6.87;;
69970;SDS011;57301;50.328;8.542;2023-10-13T01:10:19;12.00;;;7.15;;
69970;SDS011;57301;50.328;8.542;2023-10-13T01:12:46;10.18;;;6.80;;
69970;SDS011;57301;50.328;8.542;2023-10-13T01:15:13;12.80;;;6.40;;
69970;SDS011;57301;50.328;8.542;2023-10-13T01:17:46;13.10;;;6.68;;
69970;SDS011;57301;50.328;8.542;2023-10-13T01:20:13;11.53;;;6.43;;
69970;SDS011;57301;50.328;8.542;2023-10-13T01:22:51;13.07;;;6.50;;
69970;SDS011;57301;50.328;8.542;2023-10-13T01:25:23;9.35;;;6.50;;
69970;SDS011;57301;50.328;8.542;2023-10-13T01:27:54;19.02;;;10.50;;
69970;SDS011;57301;50.328;8.542;2023-10-13T01:30:21;13.63;;;8.73;;
69970;SDS011;57301;50.328;8.542;2023-10-13T01:32:52;11.43;;;7.30;;
69970;SDS011;57301;50.328;8.542;2023-10-13T01:35:20;13.68;;;7.43;;
69970;SDS011;57301;50.328;8.542;2023-10-13T01:38:01;14.65;;;6.68;;
69970;SDS011;57301;50.328;8.542;2023-10-13T01:40:28;10.73;;;6.60;;
69970;SDS011;57301;50.328;8.542;2023-10-13T01:43:00;11.55;;;5.85;;
69970;SDS011;57301;50.328;8.542;2023-10-13T01:45:27;11.37;;;6.87;;
69970;SDS011;57301;50.328;8.542;2023-10-13T01:47:56;14.70;;;6.90;;
69970;SDS011;57301;50.328;8.542;2023-10-13T01:50:23;13.30;;;6.70;;
69970;SDS011;57301;50.328;8.542;2023-10-13T01:52:56;12.13;;;6.72;;
69970;SDS011;57301;50.328;8.542;2023-10-13T01:55:41;10.50;;;6.95;;
69970;SDS011;57301;50.328;8.542;2023-10-13T01:58:10;10.07;;;7.00;;
69970;SDS011;57301;50.328;8.542;2023-10-13T02:00:45;10.40;;;6.55;;
69970;SDS011;57301;50.328;8.542;2023-10-13T02:03:14;10.38;;;6.70;;
69970;SDS011;57301;50.328;8.542;2023-10-13T02:05:46;12.00;;;6.65;;
69970;SDS011;57301;50.328;8.542;2023-10-13T02:10:52;10.67;;;6.87;;
69970;SDS011;57301;50.328;8.542;2023-10-13T02:13:20;10.30;;;6.20;;
69970;SDS011;57301;50.328;8.542;2023-10-13T02:15:49;13.40;;;6.65;;
69970;SDS011;57301;50.328;8.542;2023-10-13T02:18:20;13.95;;;7.30;;
69970;SDS011;57301;50.328;8.542;2023-10-13T02:21:06;15.35;;;6.90;;
69970;SDS011;57301;50.328;8.542;2023-10-13T02:23:42;14.47;;;6.57;;
69970;SDS011;57301;50.328;8.542;2023-10-13T02:26:12;12.70;;;7.13;;
69970;SDS011;57301;50.328;8.542;2023-10-13T02:28:53;10.32;;;6.28;;
69970;SDS011;57301;50.328;8.542;2023-10-13T02:31:23;10.23;;;6.28;;
69970;SDS011;57301;50.328;8.542;2023-10-13T02:33:52;9.95;;;6.07;;
69970;SDS011;57301;50.328;8.542;2023-10-13T02:36:19;15.20;;;7.00;;
69970;SDS011;57301;50.328;8.542;2023-10-13T02:38:49;11.50;;;6.78;;
69970;SDS011;57301;50.328;8.542;2023-10-13T02:41:17;13.73;;;6.93;;
69970;SDS011;57301;50.328;8.542;2023-10-13T02:43:55;11.88;;;6.90;;
69970;SDS011;57301;50.328;8.542;2023-10-13T02:46:22;10.68;;;6.72;;
69970;SDS011;57301;50.328;8.542;2023-10-13T02:48:55;13.87;;;6.37;;
69970;SDS011;57301;50.328;8.542;2023-10-13T02:51:23;11.95;;;7.18;;
69970;SDS011;57301;50.328;8.542;2023-10-13T02:54:02;13.68;;;7.13;;
69970;SDS011;57301;50.328;8.542;2023-10-13T02:56:39;11.90;;;6.75;;
69970;SDS011;57301;50.328;8.542;2023-10-13T02:59:26;12.55;;;7.63;;
69970;SDS011;57301;50.328;8.542;2023-10-13T03:02:12;11.67;;;6.97;;
69970;SDS011;57301;50.328;8.542;2023-10-13T03:04:52;12.77;;;7.07;;
69970;SDS011;57301;50.328;8.542;2023-10-13T03:07:30;11.73;;;6.40;;
69970;SDS011;57301;50.328;8.542;2023-10-13T03:09:57;13.35;;;6.75;;
69970;SDS011;57301;50.328;8.542;2023-10-13T03:12:36;12.80;;;6.45;;
69970;SDS011;57301;50.328;8.542;2023-10-13T03:15:03;10.53;;;6.63;;
69970;SDS011;57301;50.328;8.542;2023-10-13T03:17:44;12.10;;;6.78;;
69970;SDS011;57301;50.328;8.542;2023-10-13T03:20:12;14.05;;;7.30;;
69970;SDS011;57301;50.328;8.542;2023-10-13T03:22:43;11.95;;;7.00;;
69970;SDS011;57301;50.328;8.542;2023-10-13T03:25:13;14.43;;;6.60;;
69970;SDS011;57301;50.328;8.542;2023-10-13T03:27:51;10.50;;;7.03;;
69970;SDS011;57301;50.328;8.542;2023-10-13T03:30:18;12.20;;;7.13;;
69970;SDS011;57301;50.328;8.542;2023-10-13T03:32:47;10.68;;;6.90;;
69970;SDS011;57301;50.328;8.542;2023-10-13T03:35:20;13.70;;;6.82;;
69970;SDS011;57301;50.328;8.542;2023-10-13T03:37:51;13.65;;;7.00;;
69970;SDS011;57301;50.328;8.542;2023-10-13T03:40:18;13.47;;;6.70;;
69970;SDS011;57301;50.328;8.542;2023-10-13T03:42:54;11.27;;;7.60;;
69970;SDS011;57301;50.328;8.542;2023-10-13T03:45:38;9.90;;;6.95;;
69970;SDS011;57301;50.328;8.542;2023-10-13T03:48:07;10.90;;;7.43;;
69970;SDS011;57301;50.328;8.542;2023-10-13T03:50:36;11.60;;;7.60;;
69970;SDS011;57301;50.328;8.542;2023-10-13T03:53:12;13.87;;;7.50;;
69970;SDS011;57301;50.328;8.542;2023-10-13T03:55:39;13.43;;;6.95;;
69970;SDS011;57301;50.328;8.542;2023-10-13T03:58:14;9.57;;;6.78;;
69970;SDS011;57301;50.328;8.542;2023-10-13T04:00:43;14.38;;;8.55;;
69970;SDS011;57301;50.328;8.542;2023-10-13T04:03:09;15.85;;;8.32;;
69970;SDS011;57301;50.328;8.542;2023-10-13T04:05:36;14.93;;;8.10;;
69970;SDS011;57301;50.328;8.542;2023-10-13T04:08:12;12.30;;;9.00;;
69970;SDS011;57301;50.328;8.542;2023-10-13T04:10:53;12.80;;;8.32;;
69970;SDS011;57301;50.328;8.542;2023-10-13T04:13:21;14.02;;;7.70;;
69970;SDS011;57301;50.328;8.542;2023-10-13T04:16:07;14.77;;;8.40;;
69970;SDS011;57301;50.328;8.542;2023-10-13T04:18:49;15.00;;;9.20;;
69970;SDS011;57301;50.328;8.542;2023-10-13T04:21:36;13.20;;;8.50;;
69970;SDS011;57301;50.328;8.542;2023-10-13T04:24:10;14.18;;;7.70;;
69970;SDS011;57301;50.328;8.542;2023-10-13T04:26:43;11.10;;;7.22;;
69970;SDS011;57301;50.328;8.542;2023-10-13T04:29:29;9.88;;;6.78;;
69970;SDS011;57301;50.328;8.542;2023-10-13T04:32:18;11.17;;;7.40;;
69970;SDS011;57301;50.328;8.542;2023-10-13T04:34:55;13.85;;;8.00;;
69970;SDS011;57301;50.328;8.542;2023-10-13T04:37:27;12.07;;;7.95;;
69970;SDS011;57301;50.328;8.542;2023-10-13T04:40:14;12.30;;;7.93;;
69970;SDS011;57301;50.328;8.542;2023-10-13T04:42:43;11.07;;;7.78;;
69970;SDS011;57301;50.328;8.542;2023-10-13T04:45:16;16.70;;;9.17;;
69970;SDS011;57301;50.328;8.542;2023-10-13T04:47:56;15.52;;;8.50;;
69970;SDS011;57301;50.328;8.542;2023-10-13T04:50:43;11.75;;;7.53;;
69970;SDS011;57301;50.328;8.542;2023-10-13T04:53:14;15.38;;;8.13;;
69970;SDS011;57301;50.328;8.542;2023-10-13T04:56:00;14.48;;;9.05;;
69970;SDS011;57301;50.328;8.542;2023-10-13T04:58:30;16.40;;;8.93;;
69970;SDS011;57301;50.328;8.542;2023-10-13T05:01:00;15.18;;;9.20;;
69970;SDS011;57301;50.328;8.542;2023-10-13T05:03:49;15.10;;;8.57;;
69970;SDS011;57301;50.328;8.542;2023-10-13T05:06:34;18.50;;;10.25;;
69970;SDS011;57301;50.328;8.542;2023-10-13T05:09:10;17.40;;;9.73;;
69970;SDS011;57301;50.328;8.542;2023-10-13T05:11:56;14.80;;;9.03;;
69970;SDS011;57301;50.328;8.542;2023-10-13T05:14:42;14.88;;;8.85;;
69970;SDS011;57301;50.328;8.542;2023-10-13T05:17:27;15.75;;;8.50;;
69970;SDS011;57301;50.328;8.542;2023-10-13T05:20:12;11.43;;;7.82;;
69970;SDS011;57301;50.328;8.542;2023-10-13T05:22:57;13.40;;;8.85;;
69970;SDS011;57301;50.328;8.542;2023-10-13T05:25:42;15.60;;;8.67;;
69970;SDS011;57301;50.328;8.542;2023-10-13T05:28:27;17.58;;;8.30;;
69970;SDS011;57301;50.328;8.542;2023-10-13T05:31:12;14.90;;;7.80;;
69970;SDS011;57301;50.328;8.542;2023-10-13T05:33:57;15.05;;;8.40;;
69970;SDS011;57301;50.328;8.542;2023-10-13T05:36:42;13.40;;;8.25;;
69970;SDS011;57301;50.328;8.542;2023-10-13T05:39:27;13.70;;;8.07;;
69970;SDS011;57301;50.328;8.542;2023-10-13T05:42:11;15.00;;;7.93;;
69970;SDS011;57301;50.328;8.542;2023-10-13T05:44:57;15.50;;;7.53;;
69970;SDS011;57301;50.328;8.542;2023-10-13T05:47:50;17.50;;;8.80;;
69970;SDS011;57301;50.328;8.542;2023-10-13T05:50:28;13.60;;;7.10;;
69970;SDS011;57301;50.328;8.542;2023-10-13T05:53:15;13.00;;;6.77;;
69970;SDS011;57301;50.328;8.542;2023-10-13T05:56:13;13.00;;;6.82;;
69970;SDS011;57301;50.328;8.542;2023-10-13T05:58:59;16.15;;;6.65;;
69970;SDS011;57301;50.328;8.542;2023-10-13T06:01:44;17.95;;;7.30;;
69970;SDS011;57301;50.328;8.542;2023-10-13T06:04:29;16.08;;;6.70;;
69970;SDS011;57301;50.328;8.542;2023-10-13T06:07:28;14.00;;;8.40;;
69970;SDS011;57301;50.328;8.542;2023-10-13T06:10:13;18.13;;;8.50;;
69970;SDS011;57301;50.328;8.542;2023-10-13T06:12:58;16.90;;;8.13;;
69970;SDS011;57301;50.328;8.542;2023-10-13T06:15:43;17.70;;;8.30;;
69970;SDS011;57301;50.328;8.542;2023-10-13T06:18:29;15.38;;;8.20;;
69970;SDS011;57301;50.328;8.542;2023-10-13T06:21:14;17.87;;;7.97;;
69970;SDS011;57301;50.328;8.542;2023-10-13T06:23:59;18.70;;;7.50;;
69970;SDS011;57301;50.328;8.542;2023-10-13T06:26:44;15.40;;;7.28;;
69970;SDS011;57301;50.328;8.542;2023-10-13T06:29:32;16.55;;;7.22;;
69970;SDS011;57301;50.328;8.542;2023-10-13T06:31:59;19.45;;;6.90;;
69970;SDS011;57301;50.328;8.542;2023-10-13T06:34:28;15.07;;;6.40;;
69970;SDS011;57301;50.328;8.542;2023-10-13T06:37:14;18.20;;;6.70;;
69970;SDS011;57301;50.328;8.542;2023-10-13T06:39:55;16.75;;;6.45;;
69970;SDS011;57301;50.328;8.542;2023-10-13T06:42:23;20.98;;;6.78;;
69970;SDS011;57301;50.328;8.542;2023-10-13T06:44:53;17.52;;;6.50;;
69970;SDS011;57301;50.328;8.542;2023-10-13T06:47:21;12.90;;;5.80;;
69970;SDS011;57301;50.328;8.542;2023-10-13T06:49:48;11.45;;;5.93;;
69970;SDS011;57301;50.328;8.542;2023-10-13T06:52:17;15.32;;;5.28;;
69970;SDS011;57301;50.328;8.542;2023-10-13T06:54:44;15.43;;;5.15;;
69970;SDS011;57301;50.328;8.542;2023-10-13T06:57:10;15.57;;;5.13;;
69970;SDS011;57301;50.328;8.542;2023-10-13T06:59:46;13.10;;;5.03;;
69970;SDS011;57301;50.328;8.542;2023-10-13T07:02:13;13.77;;;4.93;;
69970;SDS011;57301;50.328;8.542;2023-10-13T07:04:53;11.85;;;4.97;;
69970;SDS011;57301;50.328;8.542;2023-10-13T07:07:34;14.88;;;4.95;;
69970;SDS011;57301;50.328;8.542;2023-10-13T07:10:02;13.30;;;5.13;;
69970;SDS011;57301;50.328;8.542;2023-10-13T07:12:34;14.13;;;5.63;;
69970;SDS011;57301;50.328;8.542;2023-10-13T07:15:00;16.58;;;5.22;;
69970;SDS011;57301;50.328;8.542;2023-10-13T07:17:31;15.48;;;5.78;;
69970;SDS011;57301;50.328;8.542;2023-10-13T07:20:04;11.05;;;4.68;;
69970;SDS011;57301;50.328;8.542;2023-10-13T07:22:41;9.85;;;5.78;;
69970;SDS011;57301;50.328;8.542;2023-10-13T07:25:21;14.83;;;5.23;;
69970;SDS011;57301;50.328;8.542;2023-10-13T07:27:51;12.10;;;4.65;;
69970;SDS011;57301;50.328;8.542;2023-10-13T07:30:20;15.85;;;5.28;;
69970;SDS011;57301;50.328;8.542;2023-10-13T07:32:52;16.02;;;5.75;;
69970;SDS011;57301;50.328;8.542;2023-10-13T07:35:24;13.68;;;5.50;;
69970;SDS011;57301;50.328;8.542;2023-10-13T07:37:57;14.57;;;4.97;;
69970;SDS011;57301;50.328;8.542;2023-10-13T07:40:26;13.95;;;4.90;;
69970;SDS011;57301;50.328;8.542;2023-10-13T07:42:56;15.48;;;4.85;;
69970;SDS011;57301;50.328;8.542;2023-10-13T07:45:30;12.23;;;4.90;;
69970;SDS011;57301;50.328;8.542;2023-10-13T07:48:09;14.07;;;4.75;;
69970;SDS011;57301;50.328;8.542;2023-10-13T07:51:07;12.83;;;5.30;;
69970;SDS011;57301;50.328;8.542;2023-10-13T07:53:53;17.10;;;5.55;;
69970;SDS011;57301;50.328;8.542;2023-10-13T07:56:20;10.13;;;5.05;;
69970;SDS011;57301;50.328;8.542;2023-10-13T07:58:47;13.77;;;5.53;;
69970;SDS011;57301;50.328;8.542;2023-10-13T08:01:19;12.52;;;5.43;;
69970;SDS011;57301;50.328;8.542;2023-10-13T08:03:46;10.60;;;5.37;;
69970;SDS011;57301;50.328;8.542;2023-10-13T08:06:14;10.88;;;4.95;;
69970;SDS011;57301;50.328;8.542;2023-10-13T08:08:46;9.95;;;5.28;;
69970;SDS011;57301;50.328;8.542;2023-10-13T08:11:35;11.40;;;5.10;;
69970;SDS011;57301;50.328;8.542;2023-10-13T08:14:04;15.00;;;5.50;;
69970;SDS011;57301;50.328;8.542;2023-10-13T08:16:56;13.57;;;5.10;;
69970;SDS011;57301;50.328;8.542;2023-10-13T08:19:26;11.82;;;5.32;;
69970;SDS011;57301;50.328;8.542;2023-10-13T08:21:57;13.77;;;5.10;;
69970;SDS011;57301;50.328;8.542;2023-10-13T08:24:47;10.15;;;5.47;;
69970;SDS011;57301;50.328;8.542;2023-10-13T08:27:15;19.33;;;6.78;;
69970;SDS011;57301;50.328;8.542;2023-10-13T08:30:02;14.37;;;5.80;;
69970;SDS011;57301;50.328;8.542;2023-10-13T08:32:52;12.10;;;5.65;;
69970;SDS011;57301;50.328;8.542;2023-10-13T08:35:26;9.88;;;5.22;;
69970;SDS011;57301;50.328;8.542;2023-10-13T08:37:56;11.48;;;4.90;;
69970;SDS011;57301;50.328;8.542;2023-10-13T08:40:36;10.07;;;5.07;;
69970;SDS011;57301;50.328;8.542;2023-10-13T08:43:22;12.10;;;5.27;;
69970;SDS011;57301;50.328;8.542;2023-10-13T08:45:50;12.98;;;5.60;;
69970;SDS011;57301;50.328;8.542;2023-10-13T08:48:18;10.82;;;5.30;;
69970;SDS011;57301;50.328;8.542;2023-10-13T08:50:46;12.15;;;5.05;;
69970;SDS011;57301;50.328;8.542;2023-10-13T08:55:58;14.17;;;5.40;;
69970;SDS011;57301;50.328;8.542;2023-10-13T08:58:29;12.32;;;5.68;;
69970;SDS011;57301;50.328;8.542;2023-10-13T09:01:15;13.05;;;5.60;;
69970;SDS011;57301;50.328;8.542;2023-10-13T09:04:03;10.10;;;5.75;;
69970;SDS011;57301;50.328;8.542;2023-10-13T09:11:53;12.70;;;6.05;;
69970;SDS011;57301;50.328;8.542;2023-10-13T09:14:41;13.88;;;6.32;;
69970;SDS011;57301;50.328;8.542;2023-10-13T09:17:13;10.38;;;6.47;;
69970;SDS011;57301;50.328;8.542;2023-10-13T09:19:49;12.40;;;5.72;;
69970;SDS011;57301;50.328;8.542;2023-10-13T09:22:23;10.27;;;5.93;;
69970;SDS011;57301;50.328;8.542;2023-10-13T09:25:03;16.38;;;6.20;;
69970;SDS011;57301;50.328;8.542;2023-10-13T09:27:32;10.57;;;5.95;;
69970;SDS011;57301;50.328;8.542;2023-10-13T09:30:00;9.73;;;5.65;;
69970;SDS011;57301;50.328;8.542;2023-10-13T09:32:47;10.18;;;6.00;;
69970;SDS011;57301;50.328;8.542;2023-10-13T09:35:28;14.13;;;6.13;;
69970;SDS011;57301;50.328;8.542;2023-10-13T09:37:59;9.40;;;5.85;;
69970;SDS011;57301;50.328;8.542;2023-10-13T09:40:28;12.23;;;6.57;;
69970;SDS011;57301;50.328;8.542;2023-10-13T09:43:05;12.95;;;5.97;;
69970;SDS011;57301;50.328;8.542;2023-10-13T09:45:34;10.70;;;5.93;;
69970;SDS011;57301;50.328;8.542;2023-10-13T09:48:32;10.83;;;6.57;;
69970;SDS011;57301;50.328;8.542;2023-10-13T09:51:01;12.57;;;6.68;;
69970;SDS011;57301;50.328;8.542;2023-10-13T09:53:31;11.35;;;5.47;;
69970;SDS011;57301;50.328;8.542;2023-10-13T09:59:01;9.02;;;6.10;;
69970;SDS011;57301;50.328;8.542;2023-10-13T10:01:37;12.80;;;6.53;;
69970;SDS011;57301;50.328;8.542;2023-10-13T10:04:16;9.85;;;6.28;;
69970;SDS011;57301;50.328;8.542;2023-10-13T10:06:55;10.50;;;6.78;;
69970;SDS011;57301;50.328;8.542;2023-10-13T10:09:26;11.65;;;7.20;;
69970;SDS011;57301;50.328;8.542;2023-10-13T10:12:12;12.48;;;5.85;;
69970;SDS011;57301;50.328;8.542;2023-10-13T10:17:54;11.57;;;6.40;;
69970;SDS011;57301;50.328;8.542;2023-10-13T10:20:31;11.88;;;6.95;;
69970;SDS011;57301;50.328;8.542;2023-10-13T10:23:08;15.38;;;7.20;;
69970;SDS011;57301;50.328;8.542;2023-10-13T10:25:47;11.82;;;6.57;;
69970;SDS011;57301;50.328;8.542;2023-10-13T10:28:16;14.87;;;6.70;;
69970;SDS011;57301;50.328;8.542;2023-10-13T10:30:45;12.73;;;5.85;;
69970;SDS011;57301;50.328;8.542;2023-10-13T10:33:12;12.57;;;6.82;;
69970;SDS011;57301;50.328;8.542;2023-10-13T10:35:40;10.25;;;6.00;;
69970;SDS011;57301;50.328;8.542;2023-10-13T10:38:18;12.23;;;6.15;;
69970;SDS011;57301;50.328;8.542;2023-10-13T10:41:06;13.00;;;6.40;;
69970;SDS011;57301;50.328;8.542;2023-10-13T10:48:51;13.98;;;7.15;;
69970;SDS011;57301;50.328;8.542;2023-10-13T10:51:22;11.40;;;6.43;;
69970;SDS011;57301;50.328;8.542;2023-10-13T10:53:52;9.90;;;6.30;;
69970;SDS011;57301;50.328;8.542;2023-10-13T10:56:23;14.43;;;6.93;;
69970;SDS011;57301;50.328;8.542;2023-10-13T10:59:03;12.98;;;6.63;;
69970;SDS011;57301;50.328;8.542;2023-10-13T11:01:31;11.30;;;7.22;;
69970;SDS011;57301;50.328;8.542;2023-10-13T11:04:13;12.38;;;6.68;;
69970;SDS011;57301;50.328;8.542;2023-10-13T11:06:46;12.10;;;6.17;;
69970;SDS011;57301;50.328;8.542;2023-10-13T11:09:13;12.02;;;6.72;;
69970;SDS011;57301;50.328;8.542;2023-10-13T11:14:30;11.60;;;6.32;;
69970;SDS011;57301;50.328;8.542;2023-10-13T11:16:57;13.38;;;6.75;;
69970;SDS011;57301;50.328;8.542;2023-10-13T11:19:37;11.63;;;6.27;;
69970;SDS011;57301;50.328;8.542;2023-10-13T11:22:15;14.15;;;6.53;;
69970;SDS011;57301;50.328;8.542;2023-10-13T11:25:08;10.57;;;5.93;;
69970;SDS011;57301;50.328;8.542;2023-10-13T11:27:38;9.32;;;6.20;;
69970;SDS011;57301;50.328;8.542;2023-10-13T11:30:26;10.38;;;6.32;;
69970;SDS011;57301;50.328;8.542;2023-10-13T11:33:03;12.33;;;6.53;;
69970;SDS011;57301;50.328;8.542;2023-10-13T11:35:32;11.27;;;6.47;;
69970;SDS011;57301;50.328;8.542;2023-10-13T11:38:15;14.80;;;6.78;;
69970;SDS011;57301;50.328;8.542;2023-10-13T11:40:52;11.15;;;6.75;;
69970;SDS011;57301;50.328;8.542;2023-10-13T11:43:31;11.73;;;6.18;;
69970;SDS011;57301;50.328;8.542;2023-10-13T11:46:10;14.80;;;6.17;;
69970;SDS011;57301;50.328;8.542;2023-10-13T11:48:37;9.57;;;5.82;;
69970;SDS011;57301;50.328;8.542;2023-10-13T11:51:08;14.10;;;6.47;;
69970;SDS011;57301;50.328;8.542;2023-10-13T11:53:43;10.20;;;6.32;;
69970;SDS011;57301;50.328;8.542;2023-10-13T11:56:18;10.10;;;6.22;;
69970;SDS011;57301;50.328;8.542;2023-10-13T11:58:48;12.33;;;6.90;;
69970;SDS011;57301;50.328;8.542;2023-10-13T12:01:15;8.75;;;5.93;;
69970;SDS011;57301;50.328;8.542;2023-10-13T12:03:45;9.70;;;5.72;;
69970;SDS011;57301;50.328;8.542;2023-10-13T12:06:32;8.65;;;5.22;;
69970;SDS011;57301;50.328;8.542;2023-10-13T12:11:45;11.17;;;6.10;;
69970;SDS011;57301;50.328;8.542;2023-10-13T12:14:14;10.43;;;5.85;;
69970;SDS011;57301;50.328;8.542;2023-10-13T12:16:47;9.20;;;6.40;;
69970;SDS011;57301;50.328;8.542;2023-10-13T12:19:24;11.77;;;6.07;;
69970;SDS011;57301;50.328;8.542;2023-10-13T12:21:53;8.50;;;5.50;;
69970;SDS011;57301;50.328;8.542;2023-10-13T12:24:23;11.87;;;6.10;;
69970;SDS011;57301;50.328;8.542;2023-10-13T12:27:03;10.57;;;6.05;;
69970;SDS011;57301;50.328;8.542;2023-10-13T12:29:48;9.82;;;5.53;;
69970;SDS011;57301;50.328;8.542;2023-10-13T12:32:18;9.15;;;5.75;;
69970;SDS011;57301;50.328;8.542;2023-10-13T12:34:57;8.73;;;5.50;;
69970;SDS011;57301;50.328;8.542;2023-10-13T12:37:24;10.87;;;6.57;;
69970;SDS011;57301;50.328;8.542;2023-10-13T12:40:04;12.50;;;5.88;;
69970;SDS011;57301;50.328;8.542;2023-10-13T12:42:50;10.63;;;6.00;;
69970;SDS011;57301;50.328;8.542;2023-10-13T12:45:39;9.85;;;5.63;;
69970;SDS011;57301;50.328;8.542;2023-10-13T12:48:25;9.75;;;5.72;;
69970;SDS011;57301;50.328;8.542;2023-10-13T12:51:11;19.90;;;14.87;;
69970;SDS011;57301;50.328;8.542;2023-10-13T12:53:50;13.43;;;5.30;;
69970;SDS011;57301;50.328;8.542;2023-10-13T12:56:17;12.77;;;6.03;;
69970;SDS011;57301;50.328;8.542;2023-10-13T12:58:54;11.75;;;5.57;;
69970;SDS011;57301;50.328;8.542;2023-10-13T13:01:22;9.10;;;5.40;;
69970;SDS011;57301;50.328;8.542;2023-10-13T13:03:52;9.37;;;5.67;;
69970;SDS011;57301;50.328;8.542;2023-10-13T13:06:23;9.98;;;5.38;;
69970;SDS011;57301;50.328;8.542;2023-10-13T13:08:55;13.52;;;6.45;;
69970;SDS011;57301;50.328;8.542;2023-10-13T13:11:23;11.10;;;6.78;;
69970;SDS011;57301;50.328;8.542;2023-10-13T13:13:52;10.93;;;6.57;;
69970;SDS011;57301;50.328;8.542;2023-10-13T13:16:19;12.53;;;6.80;;
69970;SDS011;57301;50.328;8.542;2023-10-13T13:18:50;10.18;;;6.20;;
69970;SDS011;57301;50.328;8.542;2023-10-13T13:21:17;10.70;;;6.43;;
69970;SDS011;57301;50.328;8.542;2023-10-13T13:23:52;10.57;;;6.05;;
69970;SDS011;57301;50.328;8.542;2023-10-13T13:26:24;9.68;;;5.40;;
69970;SDS011;57301;50.328;8.542;2023-10-13T13:28:51;12.10;;;5.97;;
69970;SDS011;57301;50.328;8.542;2023-10-13T13:31:18;11.75;;;6.43;;
69970;SDS011;57301;50.328;8.542;2023-10-13T13:33:45;10.63;;;5.50;;
69970;SDS011;57301;50.328;8.542;2023-10-13T13:36:11;12.88;;;5.60;;
69970;SDS011;57301;50.328;8.542;2023-10-13T13:38:42;11.05;;;5.22;;
69970;SDS011;57301;50.328;8.542;2023-10-13T13:41:16;14.37;;;5.70;;
69970;SDS011;57301;50.328;8.542;2023-10-13T13:43:44;13.88;;;5.85;;
69970;SDS011;57301;50.328;8.542;2023-10-13T13:46:22;12.57;;;6.82;;
69970;SDS011;57301;50.328;8.542;2023-10-13T13:48:59;10.60;;;5.60;;
69970;SDS011;57301;50.328;8.542;2023-10-13T13:51:27;11.77;;;5.70;;
69970;SDS011;57301;50.328;8.542;2023-10-13T13:53:55;12.27;;;5.40;;
69970;SDS011;57301;50.328;8.542;2023-10-13T13:56:22;11.82;;;5.95;;
69970;SDS011;57301;50.328;8.542;2023-10-13T13:58:51;22.10;;;10.07;;
69970;SDS011;57301;50.328;8.542;2023-10-13T14:01:19;16.48;;;8.07;;
69970;SDS011;57301;50.328;8.542;2023-10-13T14:03:52;13.35;;;6.20;;
69970;SDS011;57301;50.328;8.542;2023-10-13T14:06:23;10.57;;;5.90;;
69970;SDS011;57301;50.328;8.542;2023-10-13T14:08:51;12.75;;;5.65;;
69970;SDS011;57301;50.328;8.542;2023-10-13T14:11:23;19.17;;;10.20;;
69970;SDS011;57301;50.328;8.542;2023-10-13T14:16:42;13.05;;;6.40;;
69970;SDS011;57301;50.328;8.542;2023-10-13T14:19:14;10.90;;;5.37;;
69970;SDS011;57301;50.328;8.542;2023-10-13T14:21:46;12.52;;;5.57;;
69970;SDS011;57301;50.328;8.542;2023-10-13T14:24:20;9.60;;;5.50;;
69970;SDS011;57301;50.328;8.542;2023-10-13T14:26:54;11.20;;;6.38;;
69970;SDS011;57301;50.328;8.542;2023-10-13T14:29:35;11.45;;;5.70;;
69970;SDS011;57301;50.328;8.542;2023-10-13T14:32:09;13.67;;;6.87;;
69970;SDS011;57301;50.328;8.542;2023-10-13T14:34:43;13.95;;;6.07;;
69970;SDS011;57301;50.328;8.542;2023-10-13T14:37:12;15.02;;;6.43;;
69970;SDS011;57301;50.328;8.542;2023-10-13T14:39:52;10.00;;;6.55;;
69970;SDS011;57301;50.328;8.542;2023-10-13T14:42:23;10.68;;;5.82;;
69970;SDS011;57301;50.328;8.542;2023-10-13T14:44:51;16.13;;;6.83;;
69970;SDS011;57301;50.328;8.542;2023-10-13T14:47:24;16.58;;;8.35;;
69970;SDS011;57301;50.328;8.542;2023-10-13T14:49:55;11.18;;;5.70;;
69970;SDS011;57301;50.328;8.542;2023-10-13T14:52:26;9.52;;;5.68;;
69970;SDS011;57301;50.328;8.542;2023-10-13T14:54:52;12.88;;;6.22;;
69970;SDS011;57301;50.328;8.542;2023-10-13T14:57:21;12.10;;;5.30;;
69970;SDS011;57301;50.328;8.542;2023-10-13T14:59:54;10.82;;;5.53;;
69970;SDS011;57301;50.328;8.542;2023-10-13T15:02:21;11.88;;;5.63;;
69970;SDS011;57301;50.328;8.542;2023-10-13T15:04:48;9.35;;;5.25;;
69970;SDS011;57301;50.328;8.542;2023-10-13T15:07:16;8.65;;;5.45;;
69970;SDS011;57301;50.328;8.542;2023-10-13T15:09:44;12.73;;;6.87;;
69970;SDS011;57301;50.328;8.542;2023-10-13T15:12:10;8.98;;;5.55;;
69970;SDS011;57301;50.328;8.542;2023-10-13T15:14:41;9.20;;;5.15;;
69970;SDS011;57301;50.328;8.542;2023-10-13T15:17:08;12.40;;;5.72;;
69970;SDS011;57301;50.328;8.542;2023-10-13T15:19:36;14.85;;;8.27;;
69970;SDS011;57301;50.328;8.542;2023-10-13T15:22:05;12.77;;;6.27;;
69970;SDS011;57301;50.328;8.542;2023-10-13T15:24:42;10.07;;;5.75;;
69970;SDS011;57301;50.328;8.542;2023-10-13T15:27:11;13.98;;;7.20;;
69970;SDS011;57301;50.328;8.542;2023-10-13T15:29:38;10.13;;;5.90;;
69970;SDS011;57301;50.328;8.542;2023-10-13T15:32:05;10.43;;;5.32;;
69970;SDS011;57301;50.328;8.542;2023-10-13T15:34:52;8.00;;;5.10;;
69970;SDS011;57301;50.328;8.542;2023-10-13T15:37:19;10.93;;;5.40;;
69970;SDS011;57301;50.328;8.542;2023-10-13T15:39:46;10.50;;;5.35;;
69970;SDS011;57301;50.328;8.542;2023-10-13T15:42:13;10.88;;;5.10;;
69970;SDS011;57301;50.328;8.542;2023-10-13T15:44:40;11.82;;;5.22;;
69970;SDS011;57301;50.328;8.542;2023-10-13T15:47:09;8.07;;;4.70;;
69970;SDS011;57301;50.328;8.542;2023-10-13T15:49:41;10.70;;;5.32;;